Terminal Aerodrome Forecast
Issued by NWS

Home | Current Version | Previous Version | Text Only | Print | Product List | Glossary On
Versions: 1 2 3 4 5 6 7 8 9 10 11 12 13 14 15 16 17 18 19 20 21 22 23 24 25 26 27 28 29 30 31 32 33 34 35 36 37 38 39 40 41 42 43 44
000
FTUS45 KBOU 202331
TAFAPA
TAF
KAPA 202331Z 2100/2124 34010KT P6SM FEW160 BKN220
     FM210100 02011KT P6SM FEW160 BKN220
     FM210400 15009KT P6SM BKN220
     FM210600 19010KT P6SM SCT120 BKN220
     FM211100 12006KT P6SM SCT070 BKN110
     FM211500 03015G22KT P6SM BKN060 BKN110
     FM211800 08012KT P6SM SCT060 BKN110
     FM212100 15007KT P6SM FEW060 SCT110=

USA.gov is the U.S. government's official web portal to all federal, state and local government web resources and services.